Time;durP1;ratioP1;P1;durP2;ratioP2;P2;SDS_P1;SDS_P2;PMS_P1;PMS_P2;Temp;Humidity;BMP_temperature;BMP_pressure;BME280_temperature;BME280_humidity;BME280_pressure;Samples;Min_cycle;Max_cycle;Signal;HPM_P1;HPM_P2
2022/04/04 00:00:45;;;;;;;3.42;2.13;;;;;;;5.57;53.98;100305.00;4988603;28;20069;-41
2022/04/04 00:03:12;;;;;;;4.10;2.15;;;;;;;5.55;55.07;100304.13;5016680;28;20088;-44
2022/04/04 00:05:39;;;;;;;4.78;2.17;;;;;;;5.56;54.11;100295.56;4987240;28;20125;-41
2022/04/04 00:08:07;;;;;;;3.35;1.95;;;;;;;5.57;54.29;100287.03;4986081;28;20754;-46
2022/04/04 00:10:34;;;;;;;3.25;2.22;;;;;;;5.58;54.34;100287.91;4982813;28;20069;-42
2022/04/04 00:13:01;;;;;;;3.72;2.08;;;;;;;5.52;55.68;100280.94;4985477;28;20097;-46
2022/04/04 00:15:28;;;;;;;6.35;2.63;;;;;;;5.57;55.18;100275.91;4974454;28;20400;-43
2022/04/04 00:17:55;;;;;;;3.83;1.65;;;;;;;5.52;55.00;100268.97;4986243;28;20054;-43
2022/04/04 00:20:22;;;;;;;3.65;1.90;;;;;;;5.53;56.18;100264.66;4985035;28;21299;-42
2022/04/04 00:22:49;;;;;;;4.38;1.80;;;;;;;5.51;55.11;100263.78;4985976;28;20049;-44
2022/04/04 00:25:33;;;;;;;4.85;2.25;;;;;;;5.53;55.69;100260.41;4983964;28;20053;-44
2022/04/04 00:28:00;;;;;;;4.97;2.10;;;;;;;5.55;55.49;100262.13;4986163;28;20046;-42
2022/04/04 00:30:27;;;;;;;3.92;1.35;;;;;;;5.51;54.98;100246.66;4986833;28;20447;-42
2022/04/04 00:32:53;;;;;;;6.82;1.55;;;;;;;5.51;55.85;100240.66;4984885;28;20502;-46
2022/04/04 00:35:20;;;;;;;4.53;1.52;;;;;;;5.51;55.70;100250.94;4985608;28;20485;-42
2022/04/04 00:37:47;;;;;;;7.35;2.10;;;;;;;5.52;55.69;100250.09;4988178;28;20622;-43
2022/04/04 00:40:13;;;;;;;3.47;2.03;;;;;;;5.49;55.79;100238.06;4985556;28;20521;-44
2022/04/04 00:42:40;;;;;;;3.83;1.98;;;;;;;5.49;55.33;100248.34;4984344;28;20050;-51
2022/04/04 00:45:07;;;;;;;3.88;2.38;;;;;;;5.44;56.87;100238.78;4983594;28;20433;-45
2022/04/04 00:47:34;;;;;;;6.47;3.00;;;;;;;5.43;57.59;100237.06;4983299;28;20046;-41
2022/04/04 00:50:01;;;;;;;4.40;2.85;;;;;;;5.36;58.34;100220.63;4989395;28;20042;-47
2022/04/04 00:52:28;;;;;;;8.07;2.80;;;;;;;5.31;57.98;100218.00;4984208;28;20045;-50
2022/04/04 00:54:55;;;;;;;5.30;2.20;;;;;;;5.24;59.37;100214.41;4987127;28;20108;-44
2022/04/04 00:57:22;;;;;;;3.38;2.30;;;;;;;5.22;60.00;100208.38;4987881;28;20054;-47
2022/04/04 00:59:49;;;;;;;7.07;2.45;;;;;;;5.21;59.79;100205.78;4984360;28;20050;-44
2022/04/04 01:02:16;;;;;;;8.95;2.70;;;;;;;5.15;60.04;100201.38;4986057;28;20046;-43
2022/04/04 01:04:43;;;;;;;7.28;3.47;;;;;;;5.13;60.37;100193.63;4984649;28;20058;-46
2022/04/04 01:07:10;;;;;;;6.72;3.25;;;;;;;5.08;61.35;100179.84;4983919;28;20105;-47
2022/04/04 01:09:37;;;;;;;6.95;2.78;;;;;;;5.04;61.97;100175.47;4986169;28;20046;-48
2022/04/04 01:14:46;;;;;;;5.72;2.38;;;;;;;4.96;62.06;100170.16;5042493;28;20400;-48
2022/04/04 01:17:15;;;;;;;6.15;4.30;;;;;;;4.91;62.94;100160.59;5036848;28;20053;-47
2022/04/04 01:19:42;;;;;;;7.45;4.85;;;;;;;4.88;63.03;100157.16;5039230;28;20045;-45
2022/04/04 01:22:11;;;;;;;5.78;3.97;;;;;;;4.86;64.05;100160.50;5040429;28;20041;-48
2022/04/04 01:24:38;;;;;;;6.00;4.30;;;;;;;4.85;63.26;100148.50;5038335;28;20057;-46
2022/04/04 01:27:07;;;;;;;7.25;4.68;;;;;;;4.83;63.32;100148.47;5040169;28;20057;-43
2022/04/04 01:29:34;;;;;;;10.07;4.40;;;;;;;4.82;64.26;100141.63;5040620;28;20099;-43
2022/04/04 01:32:04;;;;;;;7.50;4.70;;;;;;;4.82;64.52;100136.47;5036453;28;20045;-45
2022/04/04 01:34:30;;;;;;;7.07;4.28;;;;;;;4.79;65.26;100130.44;5035607;28;20045;-47
2022/04/04 01:36:57;;;;;;;4.75;2.65;;;;;;;4.74;66.67;100123.50;5033295;28;20441;-46
2022/04/04 01:39:24;;;;;;;6.95;4.68;;;;;;;4.75;65.87;100114.06;5040564;28;20054;-45
2022/04/04 01:41:51;;;;;;;6.85;4.53;;;;;;;4.74;66.13;100109.78;5036364;28;20049;-44
2022/04/04 01:44:18;;;;;;;5.95;4.22;;;;;;;4.73;66.09;100096.06;5036276;28;20100;-46
2022/04/04 01:47:02;;;;;;;5.18;2.35;;;;;;;4.74;66.23;100091.81;5034482;28;20048;-47
2022/04/04 01:49:29;;;;;;;6.68;4.68;;;;;;;4.71;66.26;100073.78;5035248;28;20118;-47
2022/04/04 01:51:56;;;;;;;6.93;4.82;;;;;;;4.71;66.89;100066.09;5038060;28;20107;-44
2022/04/04 01:54:22;;;;;;;8.30;3.38;;;;;;;4.63;68.81;100056.53;5040595;28;20103;-44
2022/04/04 01:56:49;;;;;;;7.20;5.55;;;;;;;4.66;67.54;100057.44;5035545;28;20053;-45
2022/04/04 01:59:16;;;;;;;6.38;3.90;;;;;;;4.63;68.15;100048.81;5040777;28;20049;-43
2022/04/04 02:01:42;;;;;;;5.15;4.25;;;;;;;4.66;67.51;100042.88;5040867;28;20049;-48
2022/04/04 02:04:11;;;;;;;3.10;2.20;;;;;;;4.65;68.68;100036.03;5037406;28;20455;-43
2022/04/04 02:06:39;;;;;;;6.63;4.25;;;;;;;4.62;68.81;100031.72;5039539;28;20079;-45
2022/04/04 02:09:07;;;;;;;7.00;2.72;;;;;;;4.63;68.63;100017.19;5035252;28;20056;-47
2022/04/04 02:11:34;;;;;;;4.22;3.22;;;;;;;4.62;68.88;100016.31;5037292;28;20555;-44
2022/04/04 02:14:02;;;;;;;7.13;4.13;;;;;;;4.60;69.47;100007.69;5037265;28;20045;-44
2022/04/04 02:16:29;;;;;;;5.28;4.20;;;;;;;4.60;69.18;100012.84;5040310;28;20099;-46
2022/04/04 02:18:56;;;;;;;6.78;2.55;;;;;;;4.63;68.74;100001.78;5032860;28;20561;-46
2022/04/04 02:21:22;;;;;;;4.57;3.78;;;;;;;4.66;68.84;100001.00;5037653;28;20045;-47
2022/04/04 02:23:51;;;;;;;4.57;3.25;;;;;;;4.62;69.51;100000.91;5038982;28;20053;-49
2022/04/04 02:26:18;;;;;;;4.03;3.55;;;;;;;4.62;69.64;99995.78;5019638;28;20132;-43
2022/04/04 02:28:45;;;;;;;5.07;3.55;;;;;;;4.59;69.99;99985.47;5020515;28;20116;-45
2022/04/04 02:31:11;;;;;;;4.95;3.63;;;;;;;4.62;69.75;99974.38;5025790;28;20049;-43
2022/04/04 02:33:38;;;;;;;4.93;3.85;;;;;;;4.62;69.76;99972.69;5022243;28;20046;-49
2022/04/04 02:36:05;;;;;;;4.18;2.75;;;;;;;4.60;70.31;99968.38;5024480;28;20053;-45
2022/04/04 02:38:31;;;;;;;4.30;2.40;;;;;;;4.60;70.07;99969.22;5022212;28;20457;-47
2022/04/04 02:40:58;;;;;;;6.60;4.15;;;;;;;4.57;71.39;99960.63;5024977;28;20076;-49
2022/04/04 02:43:25;;;;;;;4.68;1.50;;;;;;;4.57;71.07;99950.34;5021435;28;20050;-47
2022/04/04 02:45:52;;;;;;;4.07;2.92;;;;;;;4.56;72.18;99939.22;5027589;28;20045;-44
2022/04/04 02:48:19;;;;;;;5.57;3.25;;;;;;;4.59;70.42;99948.69;5023238;28;20135;-48
2022/04/04 02:50:46;;;;;;;5.10;3.85;;;;;;;4.57;70.71;99940.97;5027203;28;20045;-48
2022/04/04 02:53:13;;;;;;;7.80;4.28;;;;;;;4.58;71.62;99934.13;5024731;28;20057;-46
2022/04/04 02:58:27;;;;;;;5.13;4.25;;;;;;;4.60;71.52;99919.63;5024924;28;20103;-47
2022/04/04 03:00:53;;;;;;;5.10;3.72;;;;;;;4.58;71.70;99924.72;5023530;28;20104;-43
2022/04/04 03:03:20;;;;;;;5.18;3.58;;;;;;;4.57;72.15;99920.44;5021970;28;20069;-44
2022/04/04 03:05:47;;;;;;;5.68;3.47;;;;;;;4.58;72.58;99922.16;5020163;28;20045;-48
2022/04/04 03:08:14;;;;;;;6.40;3.65;;;;;;;4.60;72.83;99907.66;5020073;28;20046;-44
2022/04/04 03:10:41;;;;;;;3.67;2.00;;;;;;;4.58;73.00;99914.47;5023576;28;20499;-48
2022/04/04 03:13:08;;;;;;;7.53;4.10;;;;;;;4.62;72.23;99898.31;5023524;28;20041;-49
2022/04/04 03:15:35;;;;;;;5.53;2.33;;;;;;;4.62;72.58;99903.44;5024186;28;20128;-48
2022/04/04 03:18:04;;;;;;;6.22;4.47;;;;;;;4.63;72.71;99900.03;5024397;28;20095;-42
2022/04/04 03:20:31;;;;;;;5.85;4.38;;;;;;;4.61;72.74;99896.59;5024206;28;20104;-47
2022/04/04 03:22:59;;;;;;;6.63;4.18;;;;;;;4.66;72.56;99872.72;5024868;28;20050;-45
2022/04/04 03:25:27;;;;;;;7.10;4.82;;;;;;;4.66;73.11;99878.69;5024562;28;20049;-49
2022/04/04 03:27:54;;;;;;;8.23;3.08;;;;;;;4.65;73.51;99874.41;5022277;28;20468;-45
2022/04/04 03:30:25;;;;;;;9.98;5.05;;;;;;;4.67;73.48;99864.16;5026056;28;20076;-44
2022/04/04 03:32:57;;;;;;;7.55;2.97;;;;;;;4.68;73.01;99856.50;5023164;28;20103;-47
2022/04/04 03:35:27;;;;;;;8.27;4.43;;;;;;;4.69;73.26;99857.38;5019383;28;20076;-47
2022/04/04 03:37:55;;;;;;;7.75;4.75;;;;;;;4.69;73.50;99839.41;5021252;28;20681;-47
2022/04/04 03:40:23;;;;;;;7.70;5.43;;;;;;;4.69;74.44;99847.13;5020900;28;20095;-47
2022/04/04 03:42:52;;;;;;;9.10;6.28;;;;;;;4.72;73.42;99842.00;5019754;28;20053;-47
2022/04/04 03:45:20;;;;;;;9.18;5.15;;;;;;;4.73;73.92;99838.63;5017813;28;20767;-49
2022/04/04 03:47:48;;;;;;;7.78;5.88;;;;;;;4.74;74.53;99830.09;5021507;28;20051;-43
2022/04/04 03:50:16;;;;;;;11.15;4.75;;;;;;;4.74;73.99;99827.53;5025239;28;20050;-46
2022/04/04 03:52:45;;;;;;;9.45;6.03;;;;;;;4.76;74.30;99813.00;5025074;28;20059;-52
2022/04/04 03:55:12;;;;;;;8.50;5.50;;;;;;;4.76;73.94;99818.13;5018291;28;20045;-50
2022/04/04 03:57:40;;;;;;;7.57;4.00;;;;;;;4.78;74.42;99816.47;5022695;28;20057;-52
2022/04/04 04:00:08;;;;;;;8.48;5.68;;;;;;;4.77;74.20;99804.50;5024676;28;20049;-48
2022/04/04 04:02:36;;;;;;;7.05;5.13;;;;;;;4.78;75.38;99785.69;5022426;28;20046;-46
2022/04/04 04:05:09;;;;;;;7.43;3.83;;;;;;;4.79;75.40;99786.56;5018697;28;20406;-51
2022/04/04 04:07:37;;;;;;;10.00;3.95;;;;;;;4.79;75.70;99792.53;5021787;28;20397;-45
2022/04/04 04:10:05;;;;;;;11.55;5.60;;;;;;;4.82;74.71;99787.47;5025028;28;20045;-47
2022/04/04 04:12:32;;;;;;;7.60;5.22;;;;;;;4.85;75.26;99784.06;5019799;28;20049;-47
2022/04/04 04:14:59;;;;;;;6.35;3.03;;;;;;;4.85;75.45;99791.78;5025855;28;20449;-47
2022/04/04 04:17:25;;;;;;;9.73;5.10;;;;;;;4.91;75.03;99765.34;5024873;28;20053;-49
2022/04/04 04:22:39;;;;;;;7.30;4.63;;;;;;;4.93;75.98;99773.94;5021144;28;20061;-51
2022/04/04 04:25:06;;;;;;;10.05;5.10;;;;;;;4.94;75.52;99776.53;5026504;28;20080;-48
2022/04/04 04:27:34;;;;;;;6.95;4.60;;;;;;;4.96;75.18;99774.00;5026894;28;20135;-45
2022/04/04 04:30:02;;;;;;;8.02;5.00;;;;;;;4.99;75.63;99768.91;5023907;28;20135;-48
2022/04/04 04:32:29;;;;;;;5.80;4.45;;;;;;;5.02;75.30;99753.53;5020892;28;20057;-49
2022/04/04 04:34:56;;;;;;;7.40;4.15;;;;;;;5.04;76.28;99767.28;5023531;28;20103;-47
2022/04/04 04:37:23;;;;;;;6.28;2.97;;;;;;;5.07;75.88;99772.44;5023271;28;20410;-47
2022/04/04 04:39:49;;;;;;;7.30;4.68;;;;;;;5.09;75.95;99765.63;5023433;28;20045;-47
2022/04/04 04:42:16;;;;;;;7.18;3.70;;;;;;;5.08;76.01;99748.50;5024480;28;20452;-47
2022/04/04 04:44:44;;;;;;;6.35;4.40;;;;;;;5.12;75.12;99755.41;5020965;28;20758;-48
2022/04/04 04:47:12;;;;;;;7.35;3.85;;;;;;;5.12;75.76;99755.41;5022594;28;20053;-47
2022/04/04 04:49:38;;;;;;;8.38;3.80;;;;;;;5.15;75.39;99754.59;5024427;28;20054;-47
2022/04/04 04:52:05;;;;;;;4.95;2.47;;;;;;;5.18;76.21;99738.38;5022260;28;20053;-48
2022/04/04 04:54:34;;;;;;;6.72;3.55;;;;;;;5.16;76.58;99728.06;5026125;28;20130;-45
2022/04/04 04:57:01;;;;;;;7.20;3.88;;;;;;;5.19;76.07;99724.69;5022418;28;20041;-47
2022/04/04 04:59:28;;;;;;;5.75;4.15;;;;;;;5.21;76.07;99723.00;5025341;28;20111;-46
2022/04/04 05:01:54;;;;;;;6.05;2.15;;;;;;;5.23;77.04;99726.44;5019538;28;20411;-47
2022/04/04 05:04:21;;;;;;;6.13;2.05;;;;;;;5.25;77.21;99719.66;5020339;28;20052;-48
2022/04/04 05:06:49;;;;;;;4.53;2.35;;;;;;;5.25;76.37;99715.38;5023666;28;20359;-49
2022/04/04 05:09:17;;;;;;;5.72;3.75;;;;;;;5.30;76.44;99717.16;5024337;28;20066;-47
2022/04/04 05:11:44;;;;;;;5.15;3.75;;;;;;;5.31;76.34;99717.16;5024333;28;20560;-47
2022/04/04 05:14:15;;;;;;;6.38;4.28;;;;;;;5.33;76.49;99706.91;5022855;28;20111;-47
2022/04/04 05:16:43;;;;;;;6.13;3.78;;;;;;;5.35;76.49;99711.22;5020195;28;20057;-49
2022/04/04 05:19:12;;;;;;;5.55;4.15;;;;;;;5.37;76.22;99704.38;5023661;28;20045;-47
2022/04/04 05:21:39;;;;;;;4.50;3.60;;;;;;;5.38;76.48;99705.25;5008316;28;20049;-48
2022/04/04 05:24:07;;;;;;;7.10;3.38;;;;;;;5.39;76.97;99697.59;5022372;28;20049;-44
2022/04/04 05:26:34;;;;;;;7.05;4.18;;;;;;;5.43;76.25;99698.47;5016655;28;20058;-45
2022/04/04 05:29:02;;;;;;;4.07;3.55;;;;;;;5.43;76.78;99689.94;5022340;28;20660;-45
2022/04/04 05:31:30;;;;;;;9.38;3.95;;;;;;;5.47;76.49;99694.25;5019878;28;20104;-47
2022/04/04 05:33:58;;;;;;;5.93;4.13;;;;;;;5.48;75.99;99690.84;5024613;28;20099;-52
2022/04/04 05:36:27;;;;;;;4.47;3.03;;;;;;;5.51;76.98;99680.59;5021146;28;20057;-45
2022/04/04 05:38:55;;;;;;;4.60;4.05;;;;;;;5.52;77.26;99682.31;5022596;28;20049;-48
2022/04/04 05:41:22;;;;;;;4.88;4.05;;;;;;;5.52;77.06;99677.19;5022367;28;20052;-47
2022/04/04 05:43:49;;;;;;;5.18;2.13;;;;;;;5.57;76.68;99670.38;5022932;28;20535;-43
2022/04/04 05:46:17;;;;;;;6.82;4.00;;;;;;;5.59;76.81;99673.84;5019586;28;20053;-47
2022/04/04 05:48:44;;;;;;;6.30;3.65;;;;;;;5.59;77.03;99663.56;5005890;28;20057;-47
2022/04/04 05:51:13;;;;;;;5.20;3.50;;;;;;;5.62;76.37;99660.16;5008255;28;20042;-49
2022/04/04 05:53:40;;;;;;;4.93;3.13;;;;;;;5.63;77.35;99655.03;5022422;28;20046;-50
2022/04/04 05:56:06;;;;;;;6.63;4.15;;;;;;;5.65;76.92;99665.34;5022425;28;20048;-51
2022/04/04 05:58:33;;;;;;;5.72;3.20;;;;;;;5.69;76.56;99673.94;5020996;28;20057;-47
2022/04/04 06:00:59;;;;;;;7.53;3.92;;;;;;;5.72;77.28;99667.13;5021406;28;20103;-49
2022/04/04 06:03:26;;;;;;;4.97;3.28;;;;;;;5.73;77.83;99675.69;5026083;28;20084;-47
2022/04/04 06:05:54;;;;;;;5.45;3.70;;;;;;;5.74;77.00;99682.56;5023070;28;20174;-46
2022/04/04 06:08:21;;;;;;;3.83;2.97;;;;;;;5.75;77.61;99656.88;5029462;28;20056;-47
2022/04/04 06:10:48;;;;;;;4.13;3.70;;;;;;;5.80;76.66;99654.34;5027981;28;20092;-52
2022/04/04 06:13:15;;;;;;;6.22;4.53;;;;;;;5.82;76.65;99662.97;5025512;28;20065;-49
2022/04/04 06:15:43;;;;;;;5.43;3.20;;;;;;;5.85;76.65;99655.28;5026230;28;20052;-46
2022/04/04 06:18:12;;;;;;;7.68;3.55;;;;;;;5.89;77.03;99646.75;5022472;28;20052;-46
2022/04/04 06:20:39;;;;;;;4.95;3.83;;;;;;;5.93;77.48;99645.06;5027107;28;20501;-45
2022/04/04 06:23:06;;;;;;;4.80;3.67;;;;;;;5.95;76.76;99645.09;5030667;28;20053;-50
2022/04/04 06:25:35;;;;;;;4.53;2.05;;;;;;;6.00;76.81;99640.84;5023978;28;20058;-48
2022/04/04 06:28:03;;;;;;;5.80;2.45;;;;;;;6.02;77.83;99626.31;5025775;28;20049;-49
2022/04/04 06:30:29;;;;;;;5.38;3.70;;;;;;;6.04;77.14;99642.63;5021577;28;20053;-53
2022/04/04 06:32:56;;;;;;;4.35;2.33;;;;;;;6.08;76.34;99641.78;5027446;28;20642;-53
2022/04/04 06:35:40;;;;;;;5.07;2.35;;;;;;;6.08;77.17;99626.38;5026000;28;20794;-50
2022/04/04 06:38:08;;;;;;;4.07;2.08;;;;;;;6.12;77.97;99638.41;5026067;28;20107;-47
2022/04/04 06:40:35;;;;;;;5.55;3.78;;;;;;;6.17;76.38;99633.31;5021962;28;20107;-53
2022/04/04 06:43:02;;;;;;;4.97;2.45;;;;;;;6.19;77.88;99630.75;5024382;28;20049;-51
2022/04/04 06:45:29;;;;;;;5.15;2.60;;;;;;;6.20;77.20;99632.47;5020500;28;20049;-51
2022/04/04 06:47:55;;;;;;;5.63;2.53;;;;;;;6.23;77.64;99635.06;5024130;28;20045;-48
2022/04/04 06:50:23;;;;;;;5.28;1.92;;;;;;;6.23;78.54;99632.50;5023026;28;20050;-50
2022/04/04 06:52:52;;;;;;;5.93;2.20;;;;;;;6.28;78.28;99623.09;5026477;28;20088;-53
2022/04/04 06:55:39;;;;;;;5.10;2.20;;;;;;;6.32;77.47;99619.72;5024247;28;20189;-48
2022/04/04 06:58:06;;;;;;;5.53;2.55;;;;;;;6.34;77.28;99615.44;5021262;28;20053;-49
2022/04/04 07:00:34;;;;;;;5.78;2.25;;;;;;;6.39;76.80;99608.63;5023974;28;20060;-47
2022/04/04 07:03:01;;;;;;;5.03;1.88;;;;;;;6.40;78.12;99617.19;5019778;28;20057;-47
2022/04/04 07:05:28;;;;;;;7.47;2.47;;;;;;;6.43;77.67;99620.66;5023957;28;20049;-48
2022/04/04 07:07:55;;;;;;;6.20;4.47;;;;;;;6.47;77.07;99612.94;5018499;28;20053;-50
2022/04/04 07:10:21;;;;;;;7.75;4.00;;;;;;;6.53;77.32;99607.88;5022647;28;20049;-49
2022/04/04 07:12:48;;;;;;;8.05;4.25;;;;;;;6.56;77.21;99610.47;5019789;28;20052;-47
2022/04/04 07:15:15;;;;;;;4.95;2.60;;;;;;;6.59;77.14;99605.34;5021458;28;20049;-49
2022/04/04 07:17:43;;;;;;;5.50;2.65;;;;;;;6.62;77.76;99607.91;5022301;28;20856;-46
2022/04/04 07:20:10;;;;;;;9.30;4.55;;;;;;;6.63;76.88;99604.50;5026801;28;20107;-48
2022/04/04 07:22:39;;;;;;;8.90;4.15;;;;;;;6.65;76.95;99595.06;5025070;28;20499;-49
2022/04/04 07:25:23;;;;;;;8.85;2.55;;;;;;;6.68;78.09;99607.97;5017908;28;20068;-47
2022/04/04 07:27:50;;;;;;;7.05;2.80;;;;;;;6.73;77.41;99609.69;5021542;28;20041;-50
2022/04/04 07:30:19;;;;;;;7.95;3.00;;;;;;;6.76;76.73;99609.72;5020621;28;20120;-46
2022/04/04 07:32:48;;;;;;;8.30;5.30;;;;;;;6.79;78.30;99604.59;5023077;28;20095;-45
2022/04/04 07:35:15;;;;;;;6.95;4.78;;;;;;;6.86;78.16;99606.31;5017425;28;20128;-51
2022/04/04 07:37:44;;;;;;;5.82;2.42;;;;;;;6.90;78.21;99597.81;5021826;28;20067;-49
2022/04/04 07:40:14;;;;;;;5.32;3.30;;;;;;;6.94;76.65;99584.09;5020373;28;20100;-49
2022/04/04 07:42:43;;;;;;;8.20;4.80;;;;;;;6.97;76.73;99587.50;5021353;28;20050;-50
2022/04/04 07:45:10;;;;;;;5.32;3.72;;;;;;;7.01;77.64;99589.25;5020570;28;20042;-48
2022/04/04 07:47:37;;;;;;;4.97;2.20;;;;;;;7.05;76.42;99580.66;5022377;28;20050;-48
2022/04/04 07:50:06;;;;;;;7.13;4.88;;;;;;;7.07;77.74;99576.41;5017053;28;20054;-47
2022/04/04 07:52:33;;;;;;;6.15;2.28;;;;;;;7.10;76.90;99563.53;5014302;28;20064;-51
2022/04/04 07:55:00;;;;;;;4.57;3.22;;;;;;;7.13;76.59;99542.09;5021879;28;20045;-49
2022/04/04 07:57:27;;;;;;;4.60;1.88;;;;;;;7.17;77.81;99570.41;5019343;28;20057;-49
2022/04/04 07:59:54;;;;;;;4.35;3.42;;;;;;;7.20;77.69;99561.88;5021018;28;20042;-47
2022/04/04 08:02:20;;;;;;;7.57;4.30;;;;;;;7.24;78.31;99555.88;5019067;28;20080;-48
2022/04/04 08:04:47;;;;;;;9.27;2.75;;;;;;;7.28;78.04;99554.13;5025638;28;20156;-46
2022/04/04 08:07:15;;;;;;;2.65;1.35;;;;;;;7.32;77.79;99550.72;5020620;28;20159;-49
2022/04/04 08:09:42;;;;;;;3.65;2.13;;;;;;;7.37;77.72;99567.06;5024657;28;20578;-53
2022/04/04 08:12:09;;;;;;;5.18;2.65;;;;;;;7.42;78.21;99549.88;5019644;28;20100;-52
2022/04/04 08:14:37;;;;;;;4.40;3.05;;;;;;;7.47;77.91;99552.50;5017300;28;20052;-48
2022/04/04 08:17:07;;;;;;;4.03;1.75;;;;;;;7.55;78.19;99555.06;5020995;28;20056;-52
2022/04/04 08:19:35;;;;;;;2.58;1.38;;;;;;;7.56;79.12;99531.00;5020083;28;20050;-51
2022/04/04 08:22:03;;;;;;;3.42;1.63;;;;;;;7.61;78.42;99524.16;5024879;28;20125;-50
2022/04/04 08:24:30;;;;;;;3.78;2.63;;;;;;;7.65;78.56;99535.31;5015914;28;20140;-55
2022/04/04 08:26:57;;;;;;;4.50;2.70;;;;;;;7.72;77.66;99532.75;5023132;28;20571;-48
2022/04/04 08:29:24;;;;;;;4.70;1.80;;;;;;;7.81;77.56;99531.03;5019143;28;20081;-50
2022/04/04 08:31:51;;;;;;;3.70;3.10;;;;;;;7.86;78.45;99521.56;5024758;28;20049;-51
2022/04/04 08:34:18;;;;;;;2.67;1.50;;;;;;;7.95;78.77;99529.31;5019599;28;20061;-49
2022/04/04 08:36:45;;;;;;;2.92;2.47;;;;;;;8.01;78.73;99525.00;5018601;28;20060;-50
2022/04/04 08:39:12;;;;;;;4.22;1.77;;;;;;;8.09;78.45;99525.88;5019911;28;20072;-52
2022/04/04 08:41:39;;;;;;;2.92;1.33;;;;;;;8.14;77.14;99537.03;5023582;28;20191;-47
2022/04/04 08:44:07;;;;;;;2.05;1.20;;;;;;;8.18;76.85;99536.16;5023532;28;20068;-49
2022/04/04 08:46:34;;;;;;;10.38;3.05;;;;;;;8.19;76.90;99537.91;5020446;28;20053;-54
2022/04/04 08:49:04;;;;;;;16.60;5.15;;;;;;;8.22;77.53;99535.31;5018663;28;20095;-49
2022/04/04 08:51:31;;;;;;;10.20;2.95;;;;;;;8.25;77.46;99531.00;5017621;28;20136;-48
2022/04/04 08:53:57;;;;;;;20.25;6.75;;;;;;;8.27;77.52;99532.72;5018362;28;20056;-49
2022/04/04 08:56:25;;;;;;;17.63;4.88;;;;;;;8.26;77.03;99520.69;5017502;28;20046;-51
2022/04/04 08:58:53;;;;;;;21.50;6.95;;;;;;;8.29;78.07;99530.13;5015836;28;20057;-53
2022/04/04 09:01:22;;;;;;;13.27;5.55;;;;;;;8.32;77.95;99537.88;5021912;28;20049;-49
2022/04/04 09:03:52;;;;;;;16.27;4.47;;;;;;;8.39;76.96;99538.72;5022665;28;20179;-50
2022/04/04 09:06:20;;;;;;;8.07;3.95;;;;;;;8.43;77.55;99533.56;5017951;28;20152;-45
2022/04/04 09:08:50;;;;;;;10.77;3.05;;;;;;;8.53;77.06;99536.09;5017314;28;20045;-50
2022/04/04 09:11:17;;;;;;;6.53;2.92;;;;;;;8.57;77.38;99535.25;5013000;28;20506;-47
2022/04/04 09:13:44;;;;;;;10.10;3.05;;;;;;;8.61;76.64;99534.38;5019904;28;21061;-43
2022/04/04 09:16:11;;;;;;;5.90;1.77;;;;;;;8.64;77.22;99536.97;5022105;28;20392;-49
2022/04/04 09:24:01;;;;;;;6.30;1.95;;;;;;;8.92;77.07;99507.59;5035599;28;20962;-51
2022/04/04 09:29:22;;;;;;;13.25;3.55;;;;;;;9.09;77.13;99513.53;5045153;28;20404;-46
2022/04/04 09:32:05;;;;;;;5.97;2.15;;;;;;;9.21;76.41;99512.63;5033320;28;20049;-48
2022/04/04 09:35:00;;;;;;;8.77;2.40;;;;;;;9.24;76.72;99517.78;5034399;28;20042;-46
2022/04/04 09:37:29;;;;;;;8.77;2.83;;;;;;;9.26;76.61;99516.03;5033968;28;20054;-47
2022/04/04 09:40:12;;;;;;;5.30;1.60;;;;;;;9.30;75.40;99513.44;5028478;28;20057;-47
2022/04/04 09:42:42;;;;;;;4.57;1.73;;;;;;;9.29;76.67;99509.13;5033407;28;20045;-49
2022/04/04 09:45:12;;;;;;;5.15;2.25;;;;;;;9.32;76.61;99507.38;5035910;28;20124;-51
2022/04/04 09:48:07;;;;;;;3.58;1.58;;;;;;;9.35;76.20;99511.66;5025482;28;20061;-43
2022/04/04 09:50:50;;;;;;;5.25;2.08;;;;;;;9.41;75.93;99506.47;5040033;28;20425;-44
2022/04/04 09:55:56;;;;;;;2.63;1.52;;;;;;;9.58;76.57;99502.88;5061520;28;21165;-44
2022/04/04 09:58:27;;;;;;;3.08;1.38;;;;;;;9.69;76.13;99506.25;5014198;28;20048;-46
2022/04/04 10:00:55;;;;;;;2.88;1.33;;;;;;;9.77;76.02;99519.16;5004131;28;20105;-50
2022/04/04 10:03:23;;;;;;;4.90;1.98;;;;;;;9.84;75.75;99505.28;5002054;28;20045;-45
2022/04/04 10:05:55;;;;;;;3.13;1.67;;;;;;;9.92;75.57;99512.13;5000822;28;20128;-48
2022/04/04 10:08:25;;;;;;;2.40;0.73;;;;;;;9.95;76.37;99504.31;4999867;28;20545;-46
2022/04/04 10:10:54;;;;;;;3.15;1.58;;;;;;;9.99;75.66;99501.69;5013400;28;20054;-49
2022/04/04 10:13:21;;;;;;;2.17;1.25;;;;;;;10.03;75.54;99505.97;4998139;28;20050;-46
2022/04/04 10:15:51;;;;;;;2.88;1.77;;;;;;;10.12;75.31;99501.56;4981362;28;20101;-46
2022/04/04 10:18:19;;;;;;;2.03;1.33;;;;;;;10.23;75.47;99502.34;4981044;28;20137;-48
2022/04/04 10:20:53;;;;;;;2.80;1.15;;;;;;;10.27;75.52;99509.19;4975375;28;20109;-48
2022/04/04 10:23:22;;;;;;;5.00;1.92;;;;;;;10.36;75.04;99517.72;4984517;28;20059;-47
2022/04/04 10:25:51;;;;;;;4.93;2.40;;;;;;;10.39;75.14;99512.53;4983382;28;20049;-50
2022/04/04 10:28:28;;;;;;;8.93;3.20;;;;;;;10.37;75.30;99522.06;4982145;28;20059;-45
2022/04/04 10:31:00;;;;;;;2.90;1.27;;;;;;;10.40;74.57;99519.41;5012832;28;20054;-51
2022/04/04 10:33:32;;;;;;;3.20;1.63;;;;;;;10.38;75.52;99522.03;4983235;28;20057;-47
2022/04/04 10:36:05;;;;;;;3.50;1.08;;;;;;;10.38;74.70;99528.94;4979602;28;20061;-48
2022/04/04 10:41:14;;;;;;;3.00;1.17;;;;;;;10.41;75.06;99526.31;5050799;28;20393;-49
2022/04/04 10:43:45;;;;;;;2.08;1.00;;;;;;;10.42;75.06;99522.84;5036586;28;20057;-45
2022/04/04 10:46:15;;;;;;;2.65;1.50;;;;;;;10.42;75.50;99525.44;5053921;28;20045;-49
2022/04/04 10:49:01;;;;;;;2.58;1.05;;;;;;;10.49;74.86;99532.31;5060484;28;20097;-45
2022/04/04 10:51:35;;;;;;;1.83;1.25;;;;;;;10.52;75.11;99532.28;5062090;28;20049;-49
2022/04/04 10:54:06;;;;;;;2.33;1.08;;;;;;;10.58;74.39;99527.91;5061777;28;20062;-47
2022/04/04 10:56:42;;;;;;;1.17;0.70;;;;;;;10.59;75.77;99530.47;5059636;28;20102;-50
2022/04/04 11:01:56;;;;;;;1.63;0.73;;;;;;;10.75;75.69;99535.47;5025575;28;20402;-48
2022/04/04 11:10:09;;;;;;;1.42;1.33;;;;;;;10.89;75.05;99527.53;5122425;27;20087;-46
2022/04/04 11:13:07;;;;;;;1.48;1.38;;;;;;;10.89;75.21;99522.34;5111714;27;20487;-51
2022/04/04 11:18:50;;;;;;;1.20;0.98;;;;;;;11.21;75.17;99539.22;5051196;27;20402;-47
2022/04/04 11:23:55;;;;;;;0.90;0.73;;;;;;;11.06;74.37;99527.31;5033393;28;20409;-49
2022/04/04 11:26:22;;;;;;;1.15;0.73;;;;;;;11.11;74.13;99537.63;5000825;28;20084;-48
2022/04/04 11:28:51;;;;;;;0.93;0.45;;;;;;;11.09;74.37;99518.66;4995625;28;20109;-48
2022/04/04 11:31:19;;;;;;;0.73;0.40;;;;;;;11.12;73.92;99523.78;5005650;28;20054;-43
2022/04/04 11:33:48;;;;;;;1.17;0.40;;;;;;;11.12;74.86;99518.59;4999571;28;20097;-45
2022/04/04 11:36:32;;;;;;;0.68;0.30;;;;;;;11.10;74.98;99520.34;4995555;28;20077;-50
2022/04/04 11:39:03;;;;;;;0.70;0.40;;;;;;;11.18;74.25;99518.53;5000861;28;20206;-49
2022/04/04 11:41:36;;;;;;;2.22;0.60;;;;;;;11.27;73.99;99513.22;5002222;28;20054;-45
2022/04/04 11:44:04;;;;;;;0.93;0.40;;;;;;;11.36;74.41;99506.19;5000958;28;20055;-47
2022/04/04 11:46:31;;;;;;;1.23;0.50;;;;;;;11.48;75.14;99502.56;5000476;28;20046;-49
2022/04/04 11:48:59;;;;;;;1.45;0.75;;;;;;;11.63;73.99;99504.91;5005279;28;20106;-49
2022/04/04 11:51:30;;;;;;;3.50;2.88;;;;;;;11.80;74.91;99496.84;5003472;28;20462;-48
2022/04/04 11:54:03;;;;;;;1.42;0.63;;;;;;;11.93;75.00;99502.66;5003955;28;20065;-46
2022/04/04 11:56:31;;;;;;;4.72;1.38;;;;;;;12.02;73.26;99506.00;5002239;28;20054;-48
2022/04/04 11:58:58;;;;;;;1.67;0.90;;;;;;;12.05;74.05;99496.41;5004234;28;20537;-45
2022/04/04 12:01:33;;;;;;;0.75;0.32;;;;;;;11.98;72.96;99500.00;5002663;28;20045;-49
2022/04/04 12:04:01;;;;;;;1.70;0.88;;;;;;;11.99;73.92;99501.72;5004754;28;20074;-46
2022/04/04 12:06:30;;;;;;;0.80;0.63;;;;;;;11.93;72.71;99501.84;5002645;28;20085;-46
2022/04/04 12:09:03;;;;;;;0.70;0.50;;;;;;;11.81;72.78;99498.56;5004404;28;20046;-46
2022/04/04 12:11:30;;;;;;;1.63;0.75;;;;;;;11.79;73.67;99489.94;5005068;28;20065;-46
2022/04/04 12:13:58;;;;;;;0.75;0.43;;;;;;;11.73;73.16;99490.06;5001047;28;20047;-52
2022/04/04 12:16:25;;;;;;;1.30;0.70;;;;;;;11.77;73.73;99507.28;5003616;28;20132;-48
2022/04/04 12:18:53;;;;;;;1.67;0.73;;;;;;;11.85;73.31;99498.50;5000124;28;20572;-44
2022/04/04 12:21:21;;;;;;;2.20;0.82;;;;;;;11.92;72.91;99502.72;5002533;28;20073;-45